Time;durP1;ratioP1;P1;durP2;ratioP2;P2;SDS_P1;SDS_P2;PMS_P1;PMS_P2;Temp;Humidity;BMP_temperature;BMP_pressure;BME280_temperature;BME280_humidity;BME280_pressure;Samples;Min_cycle;Max_cycle;Signal;HPM_P1;HPM_P2
2021/09/20 00:00:36;;;;;;;11.57;3.83;;;14.10;99.90;;;;;;6197525;23;20183;-79
2021/09/20 00:03:03;;;;;;;3.53;3.20;;;14.10;99.90;;;;;;6199569;23;20184;-78
2021/09/20 00:05:30;;;;;;;8.35;3.80;;;14.10;99.90;;;;;;6201896;23;20190;-78
2021/09/20 00:07:57;;;;;;;4.07;3.38;;;14.10;99.90;;;;;;6198742;23;20206;-79
2021/09/20 00:10:24;;;;;;;3.05;2.80;;;14.10;99.90;;;;;;6203193;23;20196;-80
2021/09/20 00:12:51;;;;;;;7.43;3.20;;;14.10;99.90;;;;;;6199791;23;20186;-79
2021/09/20 00:15:20;;;;;;;7.40;3.80;;;13.80;99.90;;;;;;6197115;23;20176;-79
2021/09/20 00:17:47;;;;;;;3.80;3.50;;;14.10;99.90;;;;;;6196858;23;20216;-79
2021/09/20 00:20:15;;;;;;;3.63;3.33;;;14.00;99.90;;;;;;6197534;23;20177;-80
2021/09/20 00:22:42;;;;;;;7.78;4.03;;;14.00;99.90;;;;;;6197613;23;20190;-80
2021/09/20 00:25:10;;;;;;;4.95;4.10;;;13.90;99.90;;;;;;6196787;23;20183;-80
2021/09/20 00:27:37;;;;;;;4.80;4.10;;;14.10;99.90;;;;;;6195901;23;20204;-78
2021/09/20 00:30:06;;;;;;;3.35;2.60;;;14.00;99.90;;;;;;6196030;23;20183;-79
2021/09/20 00:32:36;;;;;;;7.90;4.05;;;14.00;99.90;;;;;;6195215;23;20659;-79
2021/09/20 00:35:03;;;;;;;4.75;3.22;;;14.10;99.90;;;;;;6198573;23;20172;-80
2021/09/20 00:37:30;;;;;;;4.47;3.30;;;14.10;99.90;;;;;;6198250;23;20192;-78
2021/09/20 00:39:57;;;;;;;3.83;3.22;;;14.10;99.90;;;;;;6196836;23;20177;-78
2021/09/20 00:42:24;;;;;;;4.00;3.15;;;14.10;99.90;;;;;;6197485;23;20238;-78
2021/09/20 00:44:51;;;;;;;5.72;3.65;;;14.10;99.90;;;;;;6196137;23;20554;-79
2021/09/20 00:47:18;;;;;;;5.00;2.92;;;14.00;99.90;;;;;;6196400;23;20500;-80
2021/09/20 00:49:47;;;;;;;4.45;3.42;;;14.00;99.90;;;;;;6194675;23;20176;-79
2021/09/20 00:52:14;;;;;;;3.30;3.00;;;14.10;99.90;;;;;;6195716;23;20203;-79
2021/09/20 00:54:41;;;;;;;6.00;3.90;;;14.10;99.90;;;;;;6197985;23;20642;-80
2021/09/20 00:57:09;;;;;;;4.38;2.92;;;14.10;99.90;;;;;;6198822;23;20183;-79
2021/09/20 00:59:36;;;;;;;4.72;3.55;;;14.10;99.90;;;;;;6198624;23;20188;-80
2021/09/20 01:02:04;;;;;;;3.58;2.83;;;14.10;99.90;;;;;;6195231;23;20299;-80
2021/09/20 01:04:31;;;;;;;3.30;2.85;;;14.10;99.90;;;;;;6195531;23;20615;-79
2021/09/20 01:07:00;;;;;;;5.78;4.00;;;14.10;99.90;;;;;;6195090;23;20240;-79
2021/09/20 01:09:27;;;;;;;4.40;3.03;;;14.00;99.90;;;;;;6195598;23;20180;-79
2021/09/20 01:11:55;;;;;;;4.63;3.83;;;14.00;99.90;;;;;;6194842;23;20200;-80
2021/09/20 01:14:22;;;;;;;4.82;3.53;;;14.00;99.90;;;;;;6194471;23;20619;-80
2021/09/20 01:16:49;;;;;;;5.13;4.05;;;14.00;99.90;;;;;;6198706;23;20180;-78
2021/09/20 01:19:16;;;;;;;4.70;3.00;;;14.00;99.90;;;;;;6211166;23;20225;-78
2021/09/20 01:21:43;;;;;;;3.42;3.13;;;13.90;99.90;;;;;;6212972;23;20167;-78
2021/09/20 01:24:12;;;;;;;4.70;3.55;;;13.90;99.90;;;;;;6212540;23;20163;-77
2021/09/20 01:26:39;;;;;;;4.50;3.08;;;14.00;99.90;;;;;;6213347;23;20211;-77
2021/09/20 01:29:08;;;;;;;5.07;3.17;;;13.90;99.90;;;;;;6213193;23;20240;-78
2021/09/20 01:31:35;;;;;;;5.35;2.83;;;13.80;99.90;;;;;;6213037;23;20192;-77
2021/09/20 01:34:02;;;;;;;3.78;3.10;;;13.80;99.90;;;;;;6210626;23;20182;-78
2021/09/20 01:36:29;;;;;;;5.25;2.80;;;13.80;99.90;;;;;;6205847;23;20176;-79
2021/09/20 01:38:56;;;;;;;3.75;3.38;;;13.80;99.90;;;;;;6204367;23;20206;-79
2021/09/20 01:41:25;;;;;;;3.35;2.90;;;13.80;99.90;;;;;;6203089;23;20180;-78
2021/09/20 01:43:52;;;;;;;4.00;3.15;;;13.70;99.90;;;;;;6197124;23;20179;-79
2021/09/20 01:46:19;;;;;;;5.32;3.30;;;13.70;99.90;;;;;;6195558;23;20179;-77
2021/09/20 01:48:46;;;;;;;4.82;2.83;;;13.70;99.90;;;;;;6195296;23;20203;-78
2021/09/20 01:51:15;;;;;;;4.70;3.63;;;13.80;99.90;;;;;;6194254;23;20199;-78
2021/09/20 01:53:42;;;;;;;4.75;3.67;;;13.80;99.90;;;;;;6194873;23;20180;-79
2021/09/20 01:56:09;;;;;;;4.45;2.65;;;13.70;99.90;;;;;;6194250;23;20184;-78
2021/09/20 01:58:38;;;;;;;5.20;2.83;;;13.80;99.90;;;;;;6193526;23;20204;-77
2021/09/20 02:01:05;;;;;;;4.05;2.90;;;13.80;99.90;;;;;;6193516;23;20557;-79
2021/09/20 02:03:32;;;;;;;6.38;3.55;;;13.80;99.90;;;;;;6193269;23;20567;-79
2021/09/20 02:05:59;;;;;;;4.15;3.25;;;13.80;99.90;;;;;;6194527;23;20171;-79
2021/09/20 02:08:26;;;;;;;5.30;3.47;;;13.80;99.90;;;;;;6194758;23;20512;-79
2021/09/20 02:10:53;;;;;;;6.15;3.40;;;13.80;99.90;;;;;;6193029;23;20530;-79
2021/09/20 02:13:20;;;;;;;4.47;3.47;;;13.70;99.90;;;;;;6195006;23;20203;-79
2021/09/20 02:15:49;;;;;;;3.47;3.17;;;13.80;99.90;;;;;;6195076;23;20180;-80
2021/09/20 02:18:16;;;;;;;4.80;2.58;;;13.80;99.90;;;;;;6196059;23;20208;-80
2021/09/20 02:20:43;;;;;;;3.40;2.58;;;13.80;99.90;;;;;;6196683;23;20184;-80
2021/09/20 02:23:12;;;;;;;3.83;3.42;;;13.80;99.90;;;;;;6194278;23;20592;-80
2021/09/20 02:25:40;;;;;;;4.18;3.50;;;13.80;99.90;;;;;;6194721;23;20211;-78
2021/09/20 02:28:07;;;;;;;5.00;2.80;;;13.80;99.90;;;;;;6194759;23;20209;-80
2021/09/20 02:30:34;;;;;;;4.15;3.05;;;13.70;99.90;;;;;;6196670;23;20184;-79
2021/09/20 02:33:04;;;;;;;4.82;3.42;;;13.70;99.90;;;;;;6195391;23;20209;-81
2021/09/20 02:35:31;;;;;;;3.58;3.08;;;13.70;99.90;;;;;;6194625;23;20187;-80
2021/09/20 02:38:00;;;;;;;4.00;2.65;;;13.70;99.90;;;;;;6194841;23;20223;-78
2021/09/20 02:40:27;;;;;;;3.28;2.65;;;13.70;99.90;;;;;;6195531;23;20179;-80
2021/09/20 02:42:54;;;;;;;4.43;3.05;;;13.70;99.90;;;;;;6195400;23;20186;-79
2021/09/20 02:45:22;;;;;;;2.70;2.33;;;13.70;99.90;;;;;;6194915;23;20520;-79
2021/09/20 02:47:49;;;;;;;3.38;2.70;;;13.80;99.90;;;;;;6194400;23;20192;-77
2021/09/20 02:50:17;;;;;;;6.20;3.10;;;13.70;99.90;;;;;;6194788;23;20192;-77
2021/09/20 02:52:44;;;;;;;3.90;3.25;;;13.80;99.90;;;;;;6193622;23;20207;-79
2021/09/20 02:55:13;;;;;;;5.57;2.85;;;13.70;99.90;;;;;;6194366;23;20553;-78
2021/09/20 02:57:40;;;;;;;3.55;2.40;;;13.70;99.90;;;;;;6193553;23;20204;-79
2021/09/20 03:00:09;;;;;;;3.33;2.90;;;13.70;99.90;;;;;;6193915;23;20183;-79
2021/09/20 03:02:36;;;;;;;3.15;2.85;;;13.70;99.90;;;;;;6194051;23;20182;-77
2021/09/20 03:05:04;;;;;;;7.57;3.08;;;13.70;99.90;;;;;;6193339;23;20180;-77
2021/09/20 03:07:33;;;;;;;2.92;2.55;;;13.60;99.90;;;;;;6194185;23;20199;-79
2021/09/20 03:10:00;;;;;;;9.07;3.47;;;13.60;99.90;;;;;;6195267;23;20184;-80
2021/09/20 03:12:27;;;;;;;2.78;2.40;;;13.70;99.90;;;;;;6191830;23;20238;-78
2021/09/20 03:14:54;;;;;;;4.20;3.03;;;13.70;99.90;;;;;;6191191;23;20179;-77
2021/09/20 03:17:21;;;;;;;4.38;3.38;;;13.60;99.90;;;;;;6201837;23;20183;-76
2021/09/20 03:19:48;;;;;;;3.65;2.60;;;13.60;99.90;;;;;;6212525;23;20166;-76
2021/09/20 03:22:15;;;;;;;4.10;3.13;;;13.60;99.90;;;;;;6212633;23;20160;-77
2021/09/20 03:24:44;;;;;;;4.72;3.10;;;13.60;99.90;;;;;;6212462;23;20161;-77
2021/09/20 03:27:11;;;;;;;8.30;3.42;;;13.60;99.90;;;;;;6212391;23;20191;-76
2021/09/20 03:29:38;;;;;;;4.18;2.88;;;13.60;99.90;;;;;;6212719;23;20167;-77
2021/09/20 03:32:06;;;;;;;5.00;2.88;;;13.60;99.90;;;;;;6212026;23;20231;-76
2021/09/20 03:34:33;;;;;;;3.58;3.22;;;13.60;99.90;;;;;;6212698;23;20159;-77
2021/09/20 03:37:00;;;;;;;4.43;2.40;;;13.70;99.90;;;;;;6212173;23;20170;-77
2021/09/20 03:39:28;;;;;;;3.80;2.70;;;13.70;99.90;;;;;;6212842;23;20200;-77
2021/09/20 03:41:56;;;;;;;4.15;2.30;;;13.60;99.90;;;;;;6212164;23;20159;-76
2021/09/20 03:44:23;;;;;;;2.60;2.38;;;13.70;99.90;;;;;;6212144;23;20160;-77
2021/09/20 03:46:50;;;;;;;3.88;3.03;;;13.60;99.90;;;;;;6212012;23;20176;-77
2021/09/20 03:49:17;;;;;;;4.05;2.97;;;13.70;99.90;;;;;;6211960;23;20180;-78
2021/09/20 03:51:45;;;;;;;4.55;3.65;;;13.60;99.90;;;;;;6203972;23;20199;-79
2021/09/20 03:54:12;;;;;;;8.38;3.80;;;13.70;99.90;;;;;;6206312;23;20175;-78
2021/09/20 03:56:39;;;;;;;5.35;3.10;;;13.70;99.90;;;;;;6194754;23;20240;-79
2021/09/20 03:59:07;;;;;;;6.72;3.05;;;13.70;99.90;;;;;;6195717;23;20196;-79
2021/09/20 04:01:34;;;;;;;3.83;2.95;;;13.70;99.90;;;;;;6205853;23;20173;-78
2021/09/20 04:04:01;;;;;;;4.30;2.70;;;13.70;99.90;;;;;;6197213;23;20183;-79
2021/09/20 04:06:29;;;;;;;6.35;3.30;;;13.70;99.90;;;;;;6206763;23;20168;-77
2021/09/20 04:09:00;;;;;;;3.28;2.95;;;13.70;99.90;;;;;;6208916;23;20191;-77
2021/09/20 04:11:27;;;;;;;2.70;2.47;;;13.60;99.90;;;;;;6211336;23;20148;-76
2021/09/20 04:13:54;;;;;;;5.80;3.70;;;13.60;99.90;;;;;;6211913;23;20211;-76
2021/09/20 04:16:23;;;;;;;3.40;3.10;;;13.50;99.90;;;;;;6211581;23;20179;-77
2021/09/20 04:18:50;;;;;;;5.57;2.85;;;13.50;99.90;;;;;;6206821;23;20289;-79
2021/09/20 04:21:17;;;;;;;5.68;3.20;;;13.50;99.90;;;;;;6194555;23;20190;-79
2021/09/20 04:23:44;;;;;;;4.18;3.45;;;13.50;99.90;;;;;;6193796;23;20180;-79
2021/09/20 04:26:11;;;;;;;4.43;3.47;;;13.50;99.90;;;;;;6194362;23;20186;-79
2021/09/20 04:28:39;;;;;;;6.25;3.35;;;13.50;99.90;;;;;;6195314;23;20210;-79
2021/09/20 04:31:06;;;;;;;4.13;3.30;;;13.50;99.90;;;;;;6195613;23;20263;-79
2021/09/20 04:33:34;;;;;;;3.78;2.80;;;13.50;99.90;;;;;;6195474;23;20199;-80
2021/09/20 04:36:01;;;;;;;5.00;2.85;;;13.60;99.90;;;;;;6194094;23;20187;-79
2021/09/20 04:38:29;;;;;;;4.50;2.95;;;13.60;99.90;;;;;;6201461;23;20193;-78
2021/09/20 04:40:56;;;;;;;3.47;3.17;;;13.60;99.90;;;;;;6211800;23;20235;-78
2021/09/20 04:43:23;;;;;;;5.68;3.15;;;13.50;99.90;;;;;;6213516;23;20208;-78
2021/09/20 04:45:50;;;;;;;3.92;2.70;;;13.60;99.90;;;;;;6213405;23;20166;-78
2021/09/20 04:48:17;;;;;;;4.22;3.00;;;13.60;99.90;;;;;;6213648;23;20199;-79
2021/09/20 04:50:48;;;;;;;5.72;2.95;;;13.60;99.90;;;;;;6213387;23;20171;-78
2021/09/20 04:53:16;;;;;;;9.82;3.45;;;13.60;99.90;;;;;;6213799;23;20184;-77
2021/09/20 04:55:44;;;;;;;3.28;2.40;;;13.50;99.90;;;;;;6212768;23;20165;-78
2021/09/20 04:58:13;;;;;;;6.93;3.92;;;13.50;99.90;;;;;;6209303;23;20226;-79
2021/09/20 05:00:41;;;;;;;5.03;3.10;;;13.50;99.90;;;;;;6204498;23;20206;-80
2021/09/20 05:03:09;;;;;;;4.75;3.30;;;13.50;99.90;;;;;;6199841;23;20186;-80
2021/09/20 05:05:36;;;;;;;9.07;4.45;;;13.50;99.90;;;;;;6198340;23;20176;-79
2021/09/20 05:08:05;;;;;;;4.70;3.78;;;13.60;99.90;;;;;;6197380;23;20205;-80
2021/09/20 05:10:32;;;;;;;5.47;2.55;;;13.60;99.90;;;;;;6198584;23;20211;-78
2021/09/20 05:12:59;;;;;;;3.40;2.95;;;13.60;99.90;;;;;;6197013;23;20207;-80
2021/09/20 05:15:27;;;;;;;4.68;3.55;;;13.60;99.90;;;;;;6196027;23;20175;-79
2021/09/20 05:17:54;;;;;;;6.65;3.72;;;13.60;99.90;;;;;;6193170;23;20671;-82
2021/09/20 05:20:22;;;;;;;4.45;4.05;;;13.60;99.90;;;;;;6194891;23;20174;-82
2021/09/20 05:32:52;;;;;;;5.85;3.50;;;13.70;99.90;;;;;;6145142;23;20208;-81
2021/09/20 05:35:20;;;;;;;3.20;2.90;;;13.70;99.90;;;;;;6166581;23;20175;-81
2021/09/20 05:37:48;;;;;;;7.72;3.22;;;13.70;99.90;;;;;;6169755;23;20200;-82
2021/09/20 05:40:18;;;;;;;5.90;3.55;;;13.70;99.90;;;;;;6178783;23;20215;-83
2021/09/20 05:42:46;;;;;;;6.65;3.75;;;13.70;99.90;;;;;;6172288;23;20194;-81
2021/09/20 05:45:16;;;;;;;3.80;3.25;;;13.70;99.90;;;;;;6170539;23;20181;-82
2021/09/20 05:47:44;;;;;;;5.75;3.38;;;13.70;99.90;;;;;;6167549;23;20207;-82
2021/09/20 05:50:14;;;;;;;4.55;3.65;;;13.70;99.90;;;;;;6162067;23;20185;-82
2021/09/20 05:53:12;;;;;;;3.80;3.05;;;13.60;99.90;;;;;;6165300;23;20196;-81
2021/09/20 05:58:46;;;;;;;4.60;2.90;;;13.70;99.90;;;;;;6147956;23;20636;-81
2021/09/20 06:01:13;;;;;;;5.35;3.45;;;13.70;99.90;;;;;;6163595;23;20191;-81
2021/09/20 06:03:42;;;;;;;4.28;3.10;;;13.60;99.90;;;;;;6166076;23;20157;-82
2021/09/20 06:06:11;;;;;;;13.80;4.20;;;13.50;99.90;;;;;;6160966;23;20181;-82
2021/09/20 06:09:03;;;;;;;3.97;3.65;;;13.50;99.90;;;;;;6164643;23;20599;-82
2021/09/20 06:11:31;;;;;;;4.60;3.33;;;13.50;99.90;;;;;;6162274;23;20186;-82
2021/09/20 06:14:47;;;;;;;5.93;3.50;;;13.60;99.90;;;;;;6163144;23;20199;-83
2021/09/20 06:17:15;;;;;;;4.32;3.10;;;13.60;99.90;;;;;;6164787;23;20169;-82
2021/09/20 06:19:42;;;;;;;5.00;3.72;;;13.60;99.90;;;;;;6166499;23;20184;-82
2021/09/20 06:22:12;;;;;;;3.50;3.00;;;13.50;99.90;;;;;;6167513;23;20168;-81
2021/09/20 06:24:41;;;;;;;7.93;3.42;;;13.50;99.90;;;;;;6164824;23;20183;-82
2021/09/20 06:27:08;;;;;;;5.05;3.40;;;13.60;99.90;;;;;;6167330;23;20846;-81
2021/09/20 06:29:36;;;;;;;5.70;3.03;;;13.70;99.90;;;;;;6165256;23;20184;-82
2021/09/20 06:32:03;;;;;;;4.55;3.20;;;13.70;99.90;;;;;;6167873;23;20216;-82
2021/09/20 06:34:30;;;;;;;7.38;3.90;;;13.80;99.90;;;;;;6164183;23;20216;-82
2021/09/20 06:36:59;;;;;;;3.78;3.47;;;13.80;99.90;;;;;;6163557;23;20172;-82
2021/09/20 06:39:28;;;;;;;5.03;3.42;;;13.80;99.90;;;;;;6163859;23;20211;-82
2021/09/20 06:41:55;;;;;;;5.15;3.75;;;13.90;99.90;;;;;;6179633;23;20244;-81
2021/09/20 06:44:22;;;;;;;4.05;3.30;;;14.00;99.90;;;;;;6170717;23;20173;-81
2021/09/20 06:46:52;;;;;;;3.45;2.90;;;13.90;99.90;;;;;;6170807;23;20550;-82
2021/09/20 06:49:21;;;;;;;6.00;3.17;;;14.00;99.90;;;;;;6167764;23;20205;-82
2021/09/20 06:51:53;;;;;;;3.97;2.90;;;14.00;99.90;;;;;;6168218;23;20191;-81
2021/09/20 06:54:21;;;;;;;3.78;3.30;;;14.00;99.90;;;;;;6169030;23;20181;-81
2021/09/20 06:56:50;;;;;;;3.15;2.85;;;14.00;99.90;;;;;;6163886;23;20279;-81
2021/09/20 06:59:17;;;;;;;6.05;3.13;;;14.10;99.90;;;;;;6166368;23;20208;-82
2021/09/20 07:01:44;;;;;;;3.20;2.80;;;14.10;99.90;;;;;;6170689;23;20211;-84
2021/09/20 07:04:14;;;;;;;4.53;3.53;;;14.10;99.90;;;;;;6169769;23;20184;-83
2021/09/20 07:06:43;;;;;;;5.22;2.65;;;14.00;99.90;;;;;;6169119;23;20191;-84
2021/09/20 07:09:13;;;;;;;4.93;3.38;;;14.10;99.90;;;;;;6164200;23;20280;-81
2021/09/20 07:11:40;;;;;;;4.18;2.95;;;14.10;99.90;;;;;;6165318;23;20551;-82
2021/09/20 07:14:09;;;;;;;3.10;2.60;;;14.10;99.90;;;;;;6164011;23;20207;-81
2021/09/20 07:16:37;;;;;;;3.80;3.28;;;14.10;99.90;;;;;;6164093;23;20181;-80
2021/09/20 07:19:04;;;;;;;4.63;3.47;;;14.20;99.90;;;;;;6165648;23;20219;-81
2021/09/20 07:21:32;;;;;;;3.70;3.10;;;14.20;99.90;;;;;;6167822;23;20188;-81
2021/09/20 07:24:00;;;;;;;3.40;2.92;;;14.30;99.90;;;;;;6167691;23;20632;-81
2021/09/20 07:26:29;;;;;;;7.05;3.88;;;14.30;99.90;;;;;;6165257;23;20415;-80
2021/09/20 07:28:57;;;;;;;2.97;2.72;;;14.40;99.90;;;;;;6167723;23;20231;-81
2021/09/20 07:31:26;;;;;;;4.82;3.00;;;14.40;99.90;;;;;;6169962;23;20177;-80
2021/09/20 07:33:56;;;;;;;4.35;2.83;;;14.50;99.90;;;;;;6171775;23;20187;-79
2021/09/20 07:36:23;;;;;;;4.45;2.90;;;14.50;99.90;;;;;;6167115;23;20181;-80
2021/09/20 07:38:50;;;;;;;5.07;3.42;;;14.60;99.90;;;;;;6166134;23;20211;-80
2021/09/20 07:41:17;;;;;;;4.22;2.85;;;14.50;99.90;;;;;;6174553;23;20180;-79
2021/09/20 07:43:47;;;;;;;3.40;2.80;;;14.50;99.90;;;;;;6176058;23;20219;-79
2021/09/20 07:46:16;;;;;;;7.22;3.47;;;14.50;99.90;;;;;;6175232;23;20240;-80
2021/09/20 07:48:44;;;;;;;4.55;3.28;;;14.60;99.90;;;;;;6175135;23;20185;-80
2021/09/20 07:51:11;;;;;;;3.10;2.17;;;14.60;99.90;;;;;;6173864;23;20234;-80
2021/09/20 07:53:39;;;;;;;5.70;3.53;;;14.70;99.90;;;;;;6170050;23;20188;-80
2021/09/20 07:56:06;;;;;;;8.20;3.10;;;14.90;99.90;;;;;;6170757;23;20207;-82
2021/09/20 07:58:33;;;;;;;5.35;2.58;;;14.90;99.90;;;;;;6168989;23;20543;-81
2021/09/20 08:01:00;;;;;;;4.10;2.30;;;15.00;99.90;;;;;;6168603;23;20181;-81
2021/09/20 08:03:27;;;;;;;4.57;2.95;;;15.00;99.90;;;;;;6172686;23;20196;-81
2021/09/20 08:05:56;;;;;;;3.47;2.47;;;15.10;99.90;;;;;;6176443;23;20191;-81
2021/09/20 08:08:24;;;;;;;3.35;2.90;;;15.10;99.90;;;;;;6174326;23;20323;-80
2021/09/20 08:10:51;;;;;;;8.52;3.00;;;15.20;99.90;;;;;;6172709;23;20181;-80
2021/09/20 08:13:19;;;;;;;4.00;2.45;;;15.30;99.90;;;;;;6169326;23;20193;-80
2021/09/20 08:15:47;;;;;;;4.10;2.90;;;15.30;99.90;;;;;;6168028;23;20191;-80
2021/09/20 08:18:14;;;;;;;4.70;2.58;;;15.40;99.90;;;;;;6170167;23;20206;-81
2021/09/20 08:20:44;;;;;;;5.10;2.13;;;15.60;99.90;;;;;;6168305;23;20173;-82
2021/09/20 08:23:14;;;;;;;3.10;2.80;;;15.70;99.90;;;;;;6167330;23;20184;-82
2021/09/20 08:25:41;;;;;;;4.97;2.55;;;15.80;99.90;;;;;;6166914;23;20561;-81
2021/09/20 08:28:08;;;;;;;4.07;2.33;;;15.80;99.90;;;;;;6166273;23;20224;-80
2021/09/20 08:30:36;;;;;;;2.95;2.58;;;15.90;99.90;;;;;;6167954;23;20363;-81
2021/09/20 08:33:03;;;;;;;3.65;2.10;;;15.90;99.90;;;;;;6168812;23;20187;-79
2021/09/20 08:35:30;;;;;;;3.05;2.72;;;16.00;99.90;;;;;;6171046;23;20521;-79
2021/09/20 08:37:58;;;;;;;5.55;2.53;;;16.10;99.90;;;;;;6179251;23;20191;-79
2021/09/20 08:40:27;;;;;;;3.22;2.80;;;16.30;99.90;;;;;;6175324;23;20625;-81
2021/09/20 08:42:55;;;;;;;3.55;2.55;;;16.50;99.90;;;;;;6168546;23;20185;-80
2021/09/20 08:45:24;;;;;;;3.15;1.98;;;16.90;99.90;;;;;;6163623;23;20186;-80
2021/09/20 08:47:54;;;;;;;4.10;2.40;;;17.30;99.90;;;;;;6164633;23;20231;-81
2021/09/20 08:50:24;;;;;;;2.50;1.93;;;17.80;99.90;;;;;;6164341;23;20606;-80
2021/09/20 08:52:51;;;;;;;3.17;2.23;;;18.30;97.20;;;;;;6164786;23;20423;-81
2021/09/20 08:55:18;;;;;;;2.63;2.00;;;19.10;96.60;;;;;;6167946;23;20491;-80
2021/09/20 08:57:48;;;;;;;2.00;1.80;;;19.80;94.20;;;;;;6167616;23;20467;-80
2021/09/20 09:00:16;;;;;;;2.63;2.13;;;20.30;94.60;;;;;;6170949;23;20446;-80
2021/09/20 09:02:43;;;;;;;4.40;2.03;;;20.70;92.30;;;;;;6170991;23;20405;-79
2021/09/20 09:05:16;;;;;;;3.80;2.20;;;20.70;91.10;;;;;;6168745;23;20399;-81
2021/09/20 09:07:44;;;;;;;3.17;2.20;;;20.60;91.50;;;;;;6168822;23;20434;-80
2021/09/20 09:10:13;;;;;;;4.83;2.27;;;20.50;90.30;;;;;;6174188;23;20494;-81
2021/09/20 09:12:40;;;;;;;3.50;2.37;;;20.40;90.70;;;;;;6172492;23;20410;-79
2021/09/20 09:15:13;;;;;;;2.90;2.10;;;20.10;91.30;;;;;;6173355;23;20405;-80
2021/09/20 09:17:43;;;;;;;2.60;2.27;;;20.10;91.50;;;;;;6173104;23;20785;-81
2021/09/20 09:20:12;;;;;;;5.27;1.90;;;20.20;90.20;;;;;;6175126;23;20389;-80
2021/09/20 09:22:44;;;;;;;4.10;1.87;;;20.40;90.30;;;;;;6174458;23;20420;-81
2021/09/20 09:25:14;;;;;;;4.50;2.27;;;20.50;90.30;;;;;;6173637;23;20426;-83
2021/09/20 09:27:43;;;;;;;3.50;1.60;;;20.70;89.30;;;;;;6176560;23;20440;-82
2021/09/20 09:30:23;;;;;;;2.20;1.87;;;20.80;85.70;;;;;;6175802;23;20466;-82
2021/09/20 09:33:04;;;;;;;2.80;1.50;;;20.20;85.80;;;;;;6174964;23;20403;-80
2021/09/20 09:35:32;;;;;;;3.13;2.07;;;19.90;83.30;;;;;;6173582;23;20456;-81
2021/09/20 09:38:04;;;;;;;2.90;1.93;;;19.90;86.70;;;;;;6171166;23;20429;-81
2021/09/20 09:40:32;;;;;;;2.60;1.77;;;19.70;85.80;;;;;;6172522;23;20429;-82
2021/09/20 09:43:00;;;;;;;3.70;1.30;;;19.50;87.40;;;;;;6173638;23;20488;-82
2021/09/20 09:45:32;;;;;;;3.87;2.10;;;19.50;86.90;;;;;;6173079;23;20403;-82
2021/09/20 09:48:16;;;;;;;2.23;1.53;;;19.30;86.50;;;;;;6170281;23;20504;-82
2021/09/20 09:50:48;;;;;;;3.30;1.63;;;20.40;82.50;;;;;;6171218;23;20396;-81
2021/09/20 09:53:30;;;;;;;5.20;1.90;;;20.40;81.40;;;;;;6170943;23;20398;-81
2021/09/20 09:55:59;;;;;;;2.93;1.60;;;20.40;81.60;;;;;;6169498;23;20393;-81
2021/09/20 09:58:26;;;;;;;2.40;1.77;;;20.20;82.90;;;;;;6167855;23;20507;-80
2021/09/20 10:01:15;;;;;;;4.67;2.20;;;19.90;84.10;;;;;;6170366;23;20408;-81
2021/09/20 10:04:07;;;;;;;3.70;1.77;;;19.90;85.90;;;;;;6165640;23;20446;-81
2021/09/20 10:06:51;;;;;;;2.67;1.87;;;19.90;84.90;;;;;;6169342;23;20433;-81
2021/09/20 10:09:23;;;;;;;1.60;1.17;;;20.10;84.10;;;;;;6170656;23;20512;-82
2021/09/20 10:11:52;;;;;;;3.70;1.97;;;20.20;82.10;;;;;;6166993;23;20385;-81
2021/09/20 10:14:21;;;;;;;3.80;1.77;;;19.70;83.80;;;;;;6161961;23;20496;-82
2021/09/20 10:16:52;;;;;;;3.93;1.83;;;19.40;84.30;;;;;;6164238;23;20900;-81
2021/09/20 10:19:20;;;;;;;2.90;2.00;;;19.00;85.30;;;;;;6164127;23;20536;-82
2021/09/20 10:21:47;;;;;;;3.60;1.70;;;18.90;88.10;;;;;;6163417;23;20460;-80
2021/09/20 10:24:15;;;;;;;2.70;1.67;;;18.70;88.90;;;;;;6161755;23;20444;-80
2021/09/20 10:26:42;;;;;;;3.50;2.10;;;18.50;89.00;;;;;;6163684;23;20412;-81
2021/09/20 10:29:12;;;;;;;4.67;2.73;;;18.60;90.20;;;;;;6165677;23;20409;-82
2021/09/20 10:31:42;;;;;;;3.17;2.37;;;18.50;89.80;;;;;;6166831;23;20461;-81
2021/09/20 10:34:26;;;;;;;2.80;2.40;;;18.30;90.40;;;;;;6166400;23;20401;-81
2021/09/20 10:36:54;;;;;;;4.93;2.67;;;18.10;90.20;;;;;;6178849;23;20411;-81
2021/09/20 10:39:48;;;;;;;2.83;1.70;;;18.00;90.50;;;;;;6169006;23;20548;-81
2021/09/20 10:42:48;;;;;;;4.10;2.22;;;17.90;90.70;;;;;;6166802;23;20416;-81
2021/09/20 10:45:45;;;;;;;6.50;2.30;;;17.80;90.70;;;;;;6161133;23;20268;-80
2021/09/20 10:48:43;;;;;;;3.70;2.43;;;17.80;90.80;;;;;;6164032;23;20526;-80
2021/09/20 10:51:24;;;;;;;2.80;2.30;;;17.90;90.70;;;;;;6140885;23;20424;-81
2021/09/20 10:54:13;;;;;;;4.40;2.70;;;18.10;90.40;;;;;;6163809;23;20479;-81
2021/09/20 10:56:41;;;;;;;2.90;1.97;;;18.00;90.40;;;;;;6167579;23;20403;-81
2021/09/20 10:59:28;;;;;;;2.90;1.50;;;18.10;90.00;;;;;;6168337;23;20452;-81
2021/09/20 11:02:16;;;;;;;4.00;2.00;;;18.20;88.80;;;;;;6164068;23;20389;-81
2021/09/20 11:04:43;;;;;;;3.57;2.13;;;18.30;86.90;;;;;;6161026;23;20461;-81
2021/09/20 11:07:42;;;;;;;2.27;1.67;;;18.20;87.70;;;;;;6163531;23;20410;-80
2021/09/20 11:10:10;;;;;;;3.30;2.33;;;18.10;87.40;;;;;;6166411;23;20415;-81
2021/09/20 11:13:02;;;;;;;3.57;2.10;;;18.10;89.20;;;;;;6165707;23;20408;-81
2021/09/20 11:15:38;;;;;;;3.10;2.23;;;17.90;90.20;;;;;;6166221;23;20392;-81
2021/09/20 11:18:05;;;;;;;2.30;1.97;;;17.80;89.80;;;;;;6168859;23;20459;-80
2021/09/20 11:20:38;;;;;;;2.63;2.10;;;18.00;90.80;;;;;;6196829;23;20391;-80
2021/09/20 11:23:29;;;;;;;3.80;1.90;;;18.10;90.50;;;;;;6196586;23;20455;-81
2021/09/20 11:26:14;;;;;;;4.17;2.43;;;18.10;89.60;;;;;;6197200;23;20410;-81
2021/09/20 11:28:44;;;;;;;3.40;2.13;;;17.90;90.00;;;;;;6198232;23;20460;-79
2021/09/20 11:31:12;;;;;;;3.17;2.07;;;18.00;87.90;;;;;;6208705;23;20463;-79
2021/09/20 11:33:41;;;;;;;4.30;2.10;;;18.00;88.90;;;;;;6212038;23;20466;-80
2021/09/20 11:36:17;;;;;;;3.43;2.40;;;18.30;88.70;;;;;;6211578;23;20423;-80
2021/09/20 11:38:45;;;;;;;4.00;2.13;;;18.30;87.80;;;;;;6211694;23;20414;-79
2021/09/20 11:41:23;;;;;;;3.47;2.50;;;18.30;88.40;;;;;;6202060;23;20403;-79
2021/09/20 11:43:51;;;;;;;2.30;2.00;;;18.10;88.90;;;;;;6196448;23;20404;-78
2021/09/20 11:46:20;;;;;;;3.43;2.00;;;18.10;89.80;;;;;;6196220;23;20403;-80
2021/09/20 11:48:48;;;;;;;3.90;2.30;;;18.10;89.60;;;;;;6196854;23;20937;-80
2021/09/20 11:51:24;;;;;;;3.50;2.20;;;18.20;90.10;;;;;;6196310;23;20897;-79
2021/09/20 11:53:52;;;;;;;3.13;1.90;;;18.30;90.30;;;;;;6195680;23;20453;-80
2021/09/20 11:56:24;;;;;;;3.07;2.23;;;18.50;90.40;;;;;;6196938;23;20408;-80
2021/09/20 11:58:54;;;;;;;4.53;2.90;;;18.50;89.40;;;;;;6196847;23;20434;-79
2021/09/20 12:01:22;;;;;;;2.60;2.40;;;18.80;89.50;;;;;;6196850;23;20894;-80
2021/09/20 12:03:51;;;;;;;6.00;2.63;;;18.90;88.80;;;;;;6197031;23;20408;-80
2021/09/20 12:06:18;;;;;;;3.87;2.33;;;19.00;89.60;;;;;;6196384;23;20776;-80
2021/09/20 12:08:45;;;;;;;3.53;1.90;;;18.90;88.30;;;;;;6196827;23;20432;-78
2021/09/20 12:11:22;;;;;;;2.57;2.30;;;18.90;88.90;;;;;;6208312;23;20400;-79
2021/09/20 12:13:50;;;;;;;6.77;2.50;;;19.00;88.60;;;;;;6211451;23;20411;-78
2021/09/20 12:16:17;;;;;;;5.10;2.70;;;18.90;88.40;;;;;;6211803;23;20423;-79
2021/09/20 12:18:44;;;;;;;5.67;2.70;;;19.00;88.80;;;;;;6210973;23;20491;-78
2021/09/20 12:21:13;;;;;;;2.87;2.13;;;19.00;86.00;;;;;;6211742;23;20463;-76
2021/09/20 12:23:43;;;;;;;2.53;1.93;;;18.90;86.10;;;;;;6211673;23;20471;-78
2021/09/20 12:26:12;;;;;;;2.43;1.90;;;18.90;86.30;;;;;;6208948;23;20412;-79
2021/09/20 12:28:42;;;;;;;4.17;2.40;;;19.00;86.90;;;;;;6203286;23;20425;-80
2021/09/20 12:31:12;;;;;;;3.13;2.33;;;18.90;85.90;;;;;;6201782;23;20466;-80
2021/09/20 12:33:55;;;;;;;3.33;2.00;;;19.00;85.30;;;;;;6203308;23;20399;-80
2021/09/20 12:36:25;;;;;;;4.53;2.40;;;19.00;82.50;;;;;;6200100;23;20417;-80
2021/09/20 12:39:06;;;;;;;2.20;1.60;;;18.90;82.20;;;;;;6198443;23;20430;-79
2021/09/20 12:41:37;;;;;;;2.30;1.93;;;18.70;79.90;;;;;;6196614;23;20376;-81
2021/09/20 12:44:06;;;;;;;2.60;1.70;;;18.80;80.30;;;;;;6196671;23;20486;-81
2021/09/20 12:46:36;;;;;;;2.23;1.77;;;18.60;82.20;;;;;;6197007;23;20396;-80
2021/09/20 12:49:03;;;;;;;4.40;2.73;;;18.50;81.90;;;;;;6200945;23;20427;-79
2021/09/20 12:51:37;;;;;;;2.80;2.30;;;18.40;83.40;;;;;;6198593;23;20419;-81
2021/09/20 12:54:21;;;;;;;3.30;2.13;;;18.50;84.00;;;;;;6199598;23;20440;-80
2021/09/20 12:56:49;;;;;;;2.90;2.23;;;18.70;81.50;;;;;;6198570;23;20406;-80
2021/09/20 12:59:23;;;;;;;2.23;1.57;;;18.80;80.90;;;;;;6199929;23;20471;-80
2021/09/20 13:01:53;;;;;;;3.90;1.97;;;18.90;79.90;;;;;;6200085;23;20415;-80
2021/09/20 13:04:25;;;;;;;3.13;1.90;;;19.10;80.20;;;;;;6199323;23;20439;-80
2021/09/20 13:07:04;;;;;;;2.00;1.53;;;19.30;80.80;;;;;;6201489;23;20535;-81
2021/09/20 13:09:32;;;;;;;2.23;1.70;;;19.40;80.00;;;;;;6208387;23;20429;-78
2021/09/20 13:12:11;;;;;;;2.50;1.67;;;19.50;79.70;;;;;;6212609;23;20396;-79
2021/09/20 13:14:53;;;;;;;5.60;2.40;;;19.50;77.70;;;;;;6212924;23;20478;-80